Time;durP1;ratioP1;P1;durP2;ratioP2;P2;SDS_P1;SDS_P2;PMS_P1;PMS_P2;Temp;Humidity;BMP_temperature;BMP_pressure;BME280_temperature;BME280_humidity;BME280_pressure;Samples;Min_cycle;Max_cycle;Signal;HPM_P1;HPM_P2
2022/02/18 00:02:21;;;;;;;13.50;5.25;;;;;;;9.93;93.56;99221.16;5032489;28;20240;-82
2022/02/18 00:04:48;;;;;;;17.83;6.32;;;;;;;10.02;92.44;99222.41;5032410;28;20277;-82
2022/02/18 00:07:14;;;;;;;18.35;4.85;;;;;;;9.98;91.77;99219.03;5032733;28;20205;-82
2022/02/18 00:09:41;;;;;;;19.27;4.53;;;;;;;10.06;92.06;99207.78;5032349;28;20205;-82
2022/02/18 00:12:08;;;;;;;14.98;5.00;;;;;;;10.04;92.24;99207.03;5032148;28;20196;-82
2022/02/18 00:14:35;;;;;;;17.85;5.70;;;;;;;10.07;91.00;99189.84;5032728;28;20220;-82
2022/02/18 00:17:01;;;;;;;22.60;5.88;;;;;;;10.06;91.51;99185.41;5032475;28;20679;-82
2022/02/18 00:19:30;;;;;;;14.00;5.65;;;;;;;10.02;91.83;99209.81;5032012;28;20284;-81
2022/02/18 00:21:56;;;;;;;17.80;5.25;;;;;;;10.05;91.35;99202.53;5031942;28;20272;-81
2022/02/18 00:24:23;;;;;;;18.80;4.53;;;;;;;9.99;92.06;99196.56;5032363;28;20207;-82
2022/02/18 00:26:50;;;;;;;18.02;5.88;;;;;;;9.89;92.57;99205.31;5032076;28;20220;-81
2022/02/18 00:29:16;;;;;;;20.00;5.70;;;;;;;9.97;92.20;99208.38;5031650;28;20198;-81
2022/02/18 00:31:43;;;;;;;10.93;4.65;;;;;;;9.83;92.73;99198.47;5032100;28;20229;-81
2022/02/18 00:34:09;;;;;;;19.23;5.93;;;;;;;9.87;92.52;99202.69;5031879;28;20197;-81
2022/02/18 00:36:38;;;;;;;14.35;5.00;;;;;;;9.79;93.42;99199.59;5032030;28;20219;-81
2022/02/18 00:39:05;;;;;;;21.48;5.28;;;;;;;9.84;92.72;99197.53;5032515;28;20190;-81
2022/02/18 00:41:31;;;;;;;16.83;5.22;;;;;;;9.85;93.14;99206.44;5032210;28;20619;-80
2022/02/18 00:43:58;;;;;;;14.40;4.70;;;;;;;9.73;93.52;99214.31;5032359;28;20197;-81
2022/02/18 00:46:25;;;;;;;13.02;4.82;;;;;;;9.84;93.64;99204.72;5031793;28;20198;-80
2022/02/18 00:48:51;;;;;;;20.20;4.70;;;;;;;9.80;93.19;99207.59;5031986;28;20197;-82
2022/02/18 00:51:18;;;;;;;20.00;6.10;;;;;;;9.85;92.77;99209.13;5031161;28;20287;-82
2022/02/18 00:53:46;;;;;;;22.98;4.80;;;;;;;10.01;91.82;99212.59;5024211;28;20311;-81
2022/02/18 00:56:13;;;;;;;17.42;4.70;;;;;;;9.92;92.50;99205.09;5031612;28;20213;-82
2022/02/18 00:58:40;;;;;;;21.05;5.20;;;;;;;9.75;92.75;99196.25;5031589;28;20205;-82
2022/02/18 01:01:08;;;;;;;17.83;4.65;;;;;;;9.84;92.43;99202.91;5032047;28;20200;-81
2022/02/18 01:03:35;;;;;;;14.25;5.10;;;;;;;9.96;91.46;99194.06;5031873;28;20201;-80
2022/02/18 01:06:01;;;;;;;17.30;4.85;;;;;;;9.96;91.62;99195.88;5031523;28;20216;-81
2022/02/18 01:08:28;;;;;;;12.40;4.78;;;;;;;9.92;91.74;99192.50;5031315;28;20198;-81
2022/02/18 01:10:56;;;;;;;16.52;5.03;;;;;;;9.89;91.92;99186.47;5030966;28;20229;-81
2022/02/18 01:13:23;;;;;;;17.58;5.18;;;;;;;9.82;92.39;99188.69;5031501;28;20290;-82
2022/02/18 01:15:49;;;;;;;17.45;4.45;;;;;;;9.91;91.99;99185.41;5031457;28;20254;-80
2022/02/18 01:18:20;;;;;;;19.52;5.25;;;;;;;9.86;91.79;99200.97;5031773;28;20642;-81
2022/02/18 01:20:47;;;;;;;24.08;5.22;;;;;;;9.82;92.46;99197.59;5031420;28;20188;-82
2022/02/18 01:23:14;;;;;;;18.80;5.05;;;;;;;9.95;90.78;99205.78;5031442;28;20203;-81
2022/02/18 01:25:41;;;;;;;21.67;5.22;;;;;;;9.93;91.26;99209.53;5031433;28;20183;-82
2022/02/18 01:28:08;;;;;;;17.08;3.97;;;;;;;10.03;90.06;99200.78;5031609;28;20567;-81
2022/02/18 01:30:37;;;;;;;22.17;5.13;;;;;;;10.01;89.72;99200.00;5024170;28;20657;-80
2022/02/18 01:33:03;;;;;;;14.00;4.25;;;;;;;10.02;89.87;99191.00;5031062;28;20200;-81
2022/02/18 01:35:30;;;;;;;22.10;5.03;;;;;;;10.14;88.81;99183.97;5034891;28;20215;-81
2022/02/18 01:37:57;;;;;;;19.70;4.15;;;;;;;10.13;88.42;99184.94;5034997;28;20212;-81
2022/02/18 01:40:24;;;;;;;13.27;4.72;;;;;;;10.04;89.38;99185.53;5035363;28;20224;-81
2022/02/18 01:42:51;;;;;;;18.80;4.70;;;;;;;10.08;88.71;99161.97;5035628;28;20186;-81
2022/02/18 01:45:19;;;;;;;22.02;4.65;;;;;;;10.05;88.51;99165.72;5034493;28;20213;-81
2022/02/18 01:47:46;;;;;;;23.48;5.10;;;;;;;10.06;88.25;99159.38;5035524;28;20193;-81
2022/02/18 01:50:13;;;;;;;17.40;4.25;;;;;;;10.14;87.83;99159.75;5035304;28;20201;-81
2022/02/18 01:52:42;;;;;;;14.38;4.70;;;;;;;10.14;87.66;99167.84;5035246;28;20196;-81
2022/02/18 01:55:11;;;;;;;13.45;4.93;;;;;;;10.19;87.42;99154.09;5034857;28;20184;-81
2022/02/18 01:57:40;;;;;;;20.17;5.40;;;;;;;10.11;87.24;99140.28;5034908;28;20210;-80
2022/02/18 02:00:08;;;;;;;18.17;5.13;;;;;;;10.13;86.96;99147.28;5033772;28;20188;-81
2022/02/18 02:02:37;;;;;;;14.35;4.38;;;;;;;10.10;87.49;99141.22;5035077;28;20273;-81
2022/02/18 02:05:06;;;;;;;15.82;4.07;;;;;;;10.12;87.39;99132.09;5035318;28;20210;-81
2022/02/18 02:07:33;;;;;;;15.77;4.90;;;;;;;10.17;87.24;99140.72;5034300;28;20216;-81
2022/02/18 02:10:01;;;;;;;12.88;4.22;;;;;;;10.22;86.87;99133.25;5034780;28;20626;-81
2022/02/18 02:12:27;;;;;;;17.60;4.78;;;;;;;10.28;86.63;99129.28;5034926;28;20196;-81
2022/02/18 02:14:54;;;;;;;14.38;4.40;;;;;;;10.23;86.80;99121.50;5034874;28;20189;-81
2022/02/18 02:17:21;;;;;;;25.02;4.57;;;;;;;10.33;85.99;99108.34;5033871;28;20205;-81
2022/02/18 02:19:49;;;;;;;14.95;5.40;;;;;;;10.34;86.05;99107.41;5035508;28;20218;-81
2022/02/18 02:22:17;;;;;;;22.17;4.35;;;;;;;10.31;86.54;99101.34;5034558;28;20640;-82
2022/02/18 02:24:45;;;;;;;19.00;4.40;;;;;;;10.32;86.05;99090.50;5034639;28;20219;-82
2022/02/18 02:27:12;;;;;;;14.40;5.22;;;;;;;10.26;86.46;99093.53;5034485;28;20652;-82
2022/02/18 02:29:38;;;;;;;18.13;3.90;;;;;;;10.30;86.98;99086.19;5034489;28;20196;-81
2022/02/18 02:32:06;;;;;;;15.63;4.53;;;;;;;10.38;86.20;99078.47;5034844;28;20221;-81
2022/02/18 02:34:33;;;;;;;14.90;4.00;;;;;;;10.47;85.79;99071.59;5034217;28;20191;-81
2022/02/18 02:37:01;;;;;;;15.57;5.07;;;;;;;10.38;86.84;99068.56;5033048;28;20217;-81
2022/02/18 02:39:31;;;;;;;17.38;4.75;;;;;;;10.44;86.82;99068.13;5034709;28;20217;-82
2022/02/18 02:41:59;;;;;;;25.67;5.55;;;;;;;10.49;86.97;99065.19;5034380;28;20194;-81
2022/02/18 02:44:26;;;;;;;16.02;4.93;;;;;;;10.30;88.59;99053.88;5034107;28;20198;-81
2022/02/18 02:46:53;;;;;;;12.32;4.70;;;;;;;10.51;86.99;99055.13;5033745;28;20196;-81
2022/02/18 02:49:20;;;;;;;20.55;4.75;;;;;;;10.48;86.96;99041.91;5033924;28;20233;-81
2022/02/18 02:51:46;;;;;;;14.32;4.03;;;;;;;10.43;87.75;99050.28;5033544;28;20559;-82
2022/02/18 02:54:13;;;;;;;16.60;4.20;;;;;;;10.46;87.34;99056.44;5033766;28;20258;-81
2022/02/18 02:56:40;;;;;;;15.05;4.10;;;;;;;10.35;87.96;99043.66;5033593;28;20312;-81
2022/02/18 02:59:08;;;;;;;16.27;5.10;;;;;;;10.48;87.18;99043.75;5034072;28;20215;-80
2022/02/18 03:01:35;;;;;;;20.17;5.97;;;;;;;10.42;87.25;99031.53;5033971;28;20707;-82
2022/02/18 03:04:01;;;;;;;15.20;4.47;;;;;;;10.40;87.57;99023.59;5033282;28;20197;-81
2022/02/18 03:06:28;;;;;;;25.08;4.80;;;;;;;10.37;87.93;99023.75;5033490;28;20281;-82
2022/02/18 03:08:55;;;;;;;13.45;4.53;;;;;;;10.31;88.99;99013.44;5033735;28;20563;-81
2022/02/18 03:11:22;;;;;;;13.60;4.82;;;;;;;10.37;88.02;99004.06;5033738;28;20202;-82
2022/02/18 03:13:50;;;;;;;23.45;6.40;;;;;;;10.28;88.86;99004.66;5033624;28;20622;-81
2022/02/18 03:16:20;;;;;;;15.02;4.53;;;;;;;10.22;88.29;98998.72;5033505;28;20204;-81
2022/02/18 03:18:46;;;;;;;18.73;4.78;;;;;;;10.13;89.92;98993.97;5033627;28;20204;-82
2022/02/18 03:21:14;;;;;;;14.65;5.03;;;;;;;10.08;90.33;98989.81;5033602;28;20711;-81
2022/02/18 03:23:45;;;;;;;19.05;5.00;;;;;;;10.15;90.04;98996.53;5033575;28;20214;-82
2022/02/18 03:26:12;;;;;;;15.80;4.38;;;;;;;10.08;90.62;98990.69;5033258;28;20194;-81
2022/02/18 03:28:39;;;;;;;14.95;4.60;;;;;;;10.14;89.85;98992.13;5032903;28;20281;-81
2022/02/18 03:31:08;;;;;;;15.55;4.65;;;;;;;10.14;90.33;98984.06;5033429;28;20285;-81
2022/02/18 03:33:37;;;;;;;12.90;3.92;;;;;;;10.19;89.91;98982.75;5033356;28;20275;-81
2022/02/18 03:36:04;;;;;;;13.05;4.03;;;;;;;10.21;89.76;98971.91;5033325;28;20186;-81
2022/02/18 03:38:30;;;;;;;12.75;4.32;;;;;;;10.25;89.69;98961.81;5032807;28;20222;-81
2022/02/18 03:40:57;;;;;;;23.48;4.60;;;;;;;10.19;89.94;98955.00;5033692;28;20194;-81
2022/02/18 03:43:24;;;;;;;10.35;3.70;;;;;;;10.20;89.99;98957.59;5033662;28;20201;-81
2022/02/18 03:45:50;;;;;;;14.10;4.18;;;;;;;10.27;89.12;98957.22;5033199;28;20647;-81
2022/02/18 03:48:17;;;;;;;17.95;4.65;;;;;;;10.19;89.83;98953.16;5033026;28;20196;-81
2022/02/18 03:50:45;;;;;;;16.40;4.88;;;;;;;10.22;90.19;98947.59;5032850;28;20221;-80
2022/02/18 03:53:14;;;;;;;12.35;4.28;;;;;;;10.17;90.88;98948.88;5032872;28;20226;-82
2022/02/18 03:55:41;;;;;;;15.82;4.10;;;;;;;10.20;90.64;98940.59;5032245;28;20225;-81
2022/02/18 03:58:07;;;;;;;15.82;4.32;;;;;;;10.15;91.34;98940.03;5033606;28;20203;-81
2022/02/18 04:00:34;;;;;;;24.77;4.78;;;;;;;10.16;90.79;98939.94;5032425;28;20329;-82
2022/02/18 04:03:02;;;;;;;18.50;4.25;;;;;;;10.17;91.35;98940.78;5032969;28;20308;-81
2022/02/18 04:05:28;;;;;;;14.18;3.88;;;;;;;10.19;91.53;98928.09;5033087;28;20203;-81
2022/02/18 04:07:56;;;;;;;11.75;4.03;;;;;;;10.26;90.83;98923.19;5032778;28;20189;-81
2022/02/18 04:10:23;;;;;;;16.63;3.90;;;;;;;10.22;91.41;98917.13;5032784;28;20212;-80
2022/02/18 04:12:49;;;;;;;16.38;5.57;;;;;;;10.18;92.12;98918.31;5032685;28;20228;-82
2022/02/18 04:15:16;;;;;;;15.80;4.43;;;;;;;10.23;92.68;98917.03;5033073;28;20305;-81
2022/02/18 04:17:43;;;;;;;11.02;3.75;;;;;;;10.22;93.89;98911.75;5032828;28;20272;-81
2022/02/18 04:20:10;;;;;;;17.02;4.97;;;;;;;10.22;94.71;98904.56;5032928;28;20251;-80
2022/02/18 04:22:37;;;;;;;20.65;4.72;;;;;;;10.16;95.65;98904.97;5032398;28;20308;-82
2022/02/18 04:25:07;;;;;;;20.77;3.97;;;;;;;10.15;97.12;98905.94;5032272;28;20204;-81
2022/02/18 04:27:34;;;;;;;21.00;4.65;;;;;;;10.10;99.39;98901.81;5032174;28;20201;-81
2022/02/18 04:30:00;;;;;;;13.05;4.75;;;;;;;10.12;100.00;98889.13;5032543;28;20670;-81
2022/02/18 04:32:27;;;;;;;16.80;5.53;;;;;;;10.20;99.77;98876.03;5032194;28;20194;-81
2022/02/18 04:34:53;;;;;;;16.40;4.75;;;;;;;10.14;100.00;98871.06;5032161;28;20695;-82
2022/02/18 04:37:20;;;;;;;16.15;4.95;;;;;;;10.18;100.00;98873.44;5031312;28;20292;-82
2022/02/18 04:39:47;;;;;;;14.38;4.00;;;;;;;10.19;100.00;98858.16;5031680;28;20197;-82
2022/02/18 04:42:15;;;;;;;16.42;4.47;;;;;;;10.20;100.00;98860.75;5032195;28;20934;-81
2022/02/18 04:44:41;;;;;;;15.23;4.40;;;;;;;10.22;100.00;98848.06;5032050;28;20197;-81
2022/02/18 04:47:08;;;;;;;10.80;4.35;;;;;;;10.12;100.00;98841.56;5032266;28;20670;-81
2022/02/18 04:49:35;;;;;;;13.25;3.47;;;;;;;10.16;100.00;98837.72;5031780;28;20327;-81
2022/02/18 04:52:01;;;;;;;26.33;5.65;;;;;;;10.11;100.00;98837.19;5032102;28;20201;-81
2022/02/18 04:54:28;;;;;;;12.00;4.20;;;;;;;10.12;100.00;98830.81;5031950;28;20241;-80
2022/02/18 04:56:54;;;;;;;18.65;4.65;;;;;;;10.13;100.00;98821.78;5031697;28;20953;-80
2022/02/18 04:59:23;;;;;;;11.50;4.22;;;;;;;10.20;100.00;98819.56;5031663;28;20281;-81
2022/02/18 05:01:49;;;;;;;22.48;4.53;;;;;;;10.19;100.00;98815.97;5031843;28;20220;-80
2022/02/18 05:04:16;;;;;;;12.63;3.88;;;;;;;10.20;100.00;98817.72;5031616;28;20871;-80
2022/02/18 05:06:42;;;;;;;11.90;4.15;;;;;;;10.19;100.00;98815.97;5031852;28;20989;-82
2022/02/18 05:09:11;;;;;;;15.50;4.30;;;;;;;10.19;100.00;98810.59;5031072;28;20197;-80
2022/02/18 05:11:37;;;;;;;13.90;4.70;;;;;;;10.22;100.00;98807.72;5031590;28;20885;-81
2022/02/18 05:14:04;;;;;;;8.75;3.47;;;;;;;10.16;100.00;98802.75;5032149;28;20200;-81
2022/02/18 05:16:32;;;;;;;19.45;4.97;;;;;;;10.14;100.00;98810.06;5032125;28;20193;-82
2022/02/18 05:18:59;;;;;;;13.30;4.28;;;;;;;10.19;100.00;98807.03;5031625;28;20208;-81
2022/02/18 05:21:25;;;;;;;9.07;3.50;;;;;;;10.11;100.00;98795.97;5023489;28;20315;-81
2022/02/18 05:23:52;;;;;;;12.18;3.95;;;;;;;10.17;100.00;98784.75;5031894;28;20256;-82
2022/02/18 05:26:19;;;;;;;13.18;4.30;;;;;;;10.18;100.00;98770.38;5031247;28;20187;-82
2022/02/18 05:28:46;;;;;;;16.48;4.03;;;;;;;10.15;100.00;98766.06;5031852;28;21044;-82
2022/02/18 05:31:12;;;;;;;15.85;3.88;;;;;;;10.10;100.00;98761.97;5030758;28;20260;-82
2022/02/18 05:33:40;;;;;;;10.80;4.20;;;;;;;10.07;100.00;98757.66;5031067;28;20201;-82
2022/02/18 05:36:07;;;;;;;16.33;4.50;;;;;;;10.18;100.00;98756.91;5031205;28;20190;-82
2022/02/18 05:38:33;;;;;;;18.55;4.63;;;;;;;10.26;100.00;98751.84;5031742;28;20213;-82
2022/02/18 05:41:00;;;;;;;11.02;3.42;;;;;;;10.26;100.00;98756.38;5030665;28;20200;-81
2022/02/18 05:43:27;;;;;;;11.85;3.85;;;;;;;10.11;100.00;98748.41;5031720;28;20193;-81
2022/02/18 05:45:53;;;;;;;12.25;3.78;;;;;;;10.17;100.00;98742.59;5030766;28;20194;-81
2022/02/18 05:48:20;;;;;;;18.35;4.30;;;;;;;10.26;100.00;98740.22;5031403;28;20201;-81
2022/02/18 05:50:48;;;;;;;9.73;4.40;;;;;;;10.25;100.00;98730.44;5031207;28;20195;-82
2022/02/18 05:53:14;;;;;;;13.63;4.47;;;;;;;10.29;100.00;98729.28;5031221;28;20640;-82
2022/02/18 05:55:41;;;;;;;14.88;4.97;;;;;;;10.29;100.00;98724.78;5031129;28;20626;-81
2022/02/18 05:58:08;;;;;;;14.20;4.32;;;;;;;9.99;100.00;98714.28;5031585;28;20924;-82
2022/02/18 06:00:34;;;;;;;16.17;4.47;;;;;;;10.11;100.00;98708.06;5030073;28;20224;-81
2022/02/18 06:03:01;;;;;;;16.02;5.28;;;;;;;10.09;100.00;98701.09;5030612;28;20274;-84
2022/02/18 06:05:28;;;;;;;20.38;5.05;;;;;;;10.11;100.00;98702.69;5031195;28;20611;-80
2022/02/18 06:07:56;;;;;;;14.73;4.85;;;;;;;10.06;100.00;98699.44;5030940;28;20197;-81
2022/02/18 06:10:23;;;;;;;7.25;3.65;;;;;;;9.92;100.00;98695.03;5031227;28;20534;-81
2022/02/18 06:12:50;;;;;;;14.48;4.10;;;;;;;9.92;100.00;98686.09;5030664;28;20201;-81
2022/02/18 06:15:16;;;;;;;16.70;4.00;;;;;;;9.91;100.00;98682.56;5024159;28;20199;-81
2022/02/18 06:17:44;;;;;;;11.10;3.55;;;;;;;9.85;100.00;98679.44;5030760;28;20217;-81
2022/02/18 06:20:11;;;;;;;10.95;3.53;;;;;;;9.71;100.00;98677.72;5029448;28;20200;-81
2022/02/18 06:22:38;;;;;;;12.32;4.05;;;;;;;9.78;100.00;98666.41;5033834;28;20287;-81
2022/02/18 06:25:08;;;;;;;5.90;3.10;;;;;;;9.76;100.00;98665.66;5034275;28;20529;-81
2022/02/18 06:27:34;;;;;;;7.18;2.70;;;;;;;9.78;100.00;98663.72;5034348;28;20201;-82
2022/02/18 06:30:01;;;;;;;10.15;2.88;;;;;;;9.86;100.00;98654.25;5033930;28;20201;-82
2022/02/18 06:32:28;;;;;;;6.13;2.83;;;;;;;9.80;100.00;98667.19;5034485;28;21014;-82
2022/02/18 06:34:55;;;;;;;8.75;3.38;;;;;;;9.76;100.00;98659.44;5034181;28;20188;-81
2022/02/18 06:37:21;;;;;;;7.10;3.22;;;;;;;9.79;100.00;98657.41;5033265;28;20200;-82
2022/02/18 06:39:48;;;;;;;8.60;3.40;;;;;;;9.83;100.00;98668.78;5033858;28;20192;-81
2022/02/18 06:42:16;;;;;;;8.95;3.50;;;;;;;9.88;100.00;98660.41;5033942;28;20279;-81
2022/02/18 06:44:42;;;;;;;7.78;3.85;;;;;;;9.98;100.00;98661.50;5034540;28;20205;-82
2022/02/18 06:47:09;;;;;;;10.52;3.78;;;;;;;9.96;100.00;98652.66;5034980;28;20641;-82
2022/02/18 06:49:36;;;;;;;8.38;4.88;;;;;;;9.96;100.00;98642.75;5033813;28;20196;-82
2022/02/18 06:52:03;;;;;;;9.50;3.55;;;;;;;10.00;100.00;98638.03;5034195;28;20279;-82
2022/02/18 06:54:32;;;;;;;6.78;3.75;;;;;;;10.15;100.00;98633.38;5033823;28;20312;-81
2022/02/18 06:57:01;;;;;;;4.05;2.85;;;;;;;10.14;100.00;98635.22;5033853;28;20222;-81
2022/02/18 06:59:30;;;;;;;7.35;3.92;;;;;;;10.18;100.00;98636.72;5033590;28;20241;-81
2022/02/18 07:01:56;;;;;;;8.93;4.00;;;;;;;10.26;100.00;98627.22;5033958;28;20197;-80
2022/02/18 07:04:25;;;;;;;6.25;3.30;;;;;;;10.21;100.00;98620.34;5034199;28;20568;-81
2022/02/18 07:06:55;;;;;;;5.00;3.53;;;;;;;10.15;100.00;98618.13;5031037;28;20259;-81
2022/02/18 07:09:21;;;;;;;8.35;3.47;;;;;;;10.30;100.00;98609.94;5033467;28;20559;-82
2022/02/18 07:11:48;;;;;;;5.93;4.00;;;;;;;10.23;100.00;98613.03;5032523;28;20186;-82
2022/02/18 07:14:15;;;;;;;7.00;3.90;;;;;;;10.39;100.00;98599.34;5033624;28;20687;-81
2022/02/18 07:16:44;;;;;;;8.73;3.78;;;;;;;10.40;100.00;98601.09;5033651;28;20198;-82
2022/02/18 07:19:11;;;;;;;5.75;2.95;;;;;;;10.41;100.00;98599.25;5032886;28;20213;-83
2022/02/18 07:21:39;;;;;;;5.95;3.63;;;;;;;10.50;100.00;98595.88;5033544;28;20223;-82
2022/02/18 07:24:06;;;;;;;6.20;3.03;;;;;;;10.59;100.00;98584.44;5032985;28;20194;-83
2022/02/18 07:26:33;;;;;;;8.45;3.63;;;;;;;10.50;100.00;98577.03;5033432;28;20230;-82
2022/02/18 07:29:00;;;;;;;7.78;3.97;;;;;;;10.60;100.00;98586.13;5027071;28;20239;-82
2022/02/18 07:31:27;;;;;;;5.05;3.90;;;;;;;10.64;100.00;98578.69;5033507;28;20216;-84
2022/02/18 07:33:55;;;;;;;6.38;3.70;;;;;;;10.73;100.00;98572.63;5032724;28;20276;-83
2022/02/18 07:36:22;;;;;;;9.48;4.68;;;;;;;10.82;100.00;98565.69;5029713;28;20296;-82
2022/02/18 07:38:49;;;;;;;6.72;3.95;;;;;;;10.74;100.00;98562.72;5032713;28;20290;-84
2022/02/18 07:41:15;;;;;;;6.05;3.70;;;;;;;10.77;100.00;98557.13;5031365;28;20201;-82
2022/02/18 07:43:43;;;;;;;5.50;3.80;;;;;;;10.97;100.00;98563.69;5031528;28;20626;-82
2022/02/18 07:46:09;;;;;;;5.90;3.97;;;;;;;10.99;100.00;98562.59;5031796;28;20283;-83
2022/02/18 07:48:36;;;;;;;5.13;3.63;;;;;;;11.06;100.00;98557.59;5031055;28;20190;-84
2022/02/18 07:51:06;;;;;;;4.18;3.50;;;;;;;10.98;100.00;98555.47;5031509;28;20206;-82
2022/02/18 07:53:33;;;;;;;8.95;4.50;;;;;;;10.98;100.00;98539.31;5030944;28;20225;-83
2022/02/18 07:56:04;;;;;;;5.32;4.20;;;;;;;11.08;100.00;98539.47;5032301;28;20636;-83
2022/02/18 07:58:30;;;;;;;5.70;4.35;;;;;;;11.15;100.00;98526.41;5031930;28;20671;-84
2022/02/18 08:00:57;;;;;;;3.63;3.33;;;;;;;11.07;100.00;98518.88;5031946;28;20281;-83
2022/02/18 08:03:26;;;;;;;4.63;3.80;;;;;;;11.14;100.00;98516.59;5033113;28;20288;-82
2022/02/18 08:05:53;;;;;;;4.68;3.50;;;;;;;11.14;100.00;98521.97;5032172;28;20562;-84
2022/02/18 08:08:24;;;;;;;3.75;3.45;;;;;;;11.17;100.00;98519.91;5028091;28;20197;-83
2022/02/18 08:10:51;;;;;;;4.90;2.95;;;;;;;11.27;100.00;98517.34;5031978;28;20652;-83
2022/02/18 08:13:18;;;;;;;6.63;4.00;;;;;;;11.42;100.00;98521.53;5036076;28;20280;-82
2022/02/18 08:15:44;;;;;;;4.32;2.65;;;;;;;11.55;100.00;98504.38;5035360;28;20230;-83
2022/02/18 08:18:11;;;;;;;4.10;3.20;;;;;;;11.63;100.00;98494.72;5035333;28;20316;-82
2022/02/18 08:20:38;;;;;;;5.00;3.05;;;;;;;11.58;100.00;98502.31;5033952;28;20205;-81
2022/02/18 08:23:05;;;;;;;5.72;3.38;;;;;;;11.62;100.00;98501.09;5034957;28;20225;-82
2022/02/18 08:25:33;;;;;;;5.63;3.42;;;;;;;11.60;100.00;98497.66;5033326;28;20225;-82
2022/02/18 08:28:00;;;;;;;3.88;3.20;;;;;;;11.52;100.00;98492.00;5035758;28;20210;-82
2022/02/18 08:30:28;;;;;;;6.30;4.30;;;;;;;11.51;100.00;98500.22;5035443;28;20198;-82
2022/02/18 08:32:54;;;;;;;4.13;2.80;;;;;;;11.56;100.00;98495.34;5036221;28;20228;-82
2022/02/18 08:35:21;;;;;;;4.95;3.35;;;;;;;11.62;100.00;98484.91;5033843;28;20260;-83
2022/02/18 08:37:48;;;;;;;7.03;3.45;;;;;;;11.68;100.00;98480.84;5035361;28;20206;-84
2022/02/18 08:40:14;;;;;;;5.80;2.90;;;;;;;11.73;100.00;98483.19;5032989;28;20222;-81
2022/02/18 08:42:42;;;;;;;6.97;3.55;;;;;;;11.71;100.00;98475.19;5013495;28;20187;-82
2022/02/18 08:45:09;;;;;;;8.60;3.78;;;;;;;11.72;100.00;98479.63;5032044;28;20664;-81
2022/02/18 08:47:36;;;;;;;7.60;3.70;;;;;;;11.78;100.00;98467.47;5032892;28;20216;-81
2022/02/18 08:50:03;;;;;;;6.38;3.63;;;;;;;11.77;100.00;98482.81;5033075;28;20628;-82
2022/02/18 08:52:30;;;;;;;7.10;3.70;;;;;;;12.00;100.00;98478.25;5027624;28;20205;-82
2022/02/18 08:54:57;;;;;;;6.07;3.22;;;;;;;12.12;100.00;98476.44;5032193;28;20237;-82
2022/02/18 08:57:23;;;;;;;7.47;3.35;;;;;;;12.33;100.00;98454.03;5032758;28;20222;-84
2022/02/18 08:59:52;;;;;;;4.38;3.53;;;;;;;12.42;100.00;98462.22;5031663;28;20218;-84
2022/02/18 09:02:18;;;;;;;4.50;3.60;;;;;;;12.55;100.00;98463.88;5032388;28;20259;-83
2022/02/18 09:04:45;;;;;;;6.47;4.40;;;;;;;12.52;100.00;98457.75;5032230;28;20192;-84
2022/02/18 09:07:12;;;;;;;7.30;5.68;;;;;;;12.43;100.00;98471.16;5029602;28;20280;-83
2022/02/18 09:09:39;;;;;;;8.10;3.88;;;;;;;12.29;100.00;98448.03;5032042;28;20643;-81
2022/02/18 09:12:07;;;;;;;3.95;2.67;;;;;;;12.45;100.00;98451.16;5032038;28;20206;-82
2022/02/18 09:14:33;;;;;;;5.32;2.88;;;;;;;12.55;100.00;98443.16;5032008;28;20218;-85
2022/02/18 09:17:01;;;;;;;5.25;3.67;;;;;;;12.55;100.00;98432.34;5031667;28;20556;-84
2022/02/18 09:19:28;;;;;;;4.25;2.47;;;;;;;12.48;100.00;98431.13;5031304;28;20225;-82
2022/02/18 09:21:55;;;;;;;3.67;2.47;;;;;;;12.69;100.00;98426.63;5031701;28;20217;-85
2022/02/18 09:24:22;;;;;;;3.10;2.80;;;;;;;12.92;100.00;98430.03;5031614;28;20203;-83
2022/02/18 09:26:49;;;;;;;5.20;4.55;;;;;;;13.10;100.00;98416.78;5030927;28;20281;-84
2022/02/18 09:29:17;;;;;;;3.40;2.53;;;;;;;13.17;100.00;98413.56;5031435;28;20202;-83
2022/02/18 09:31:43;;;;;;;5.72;3.22;;;;;;;13.02;100.00;98410.31;5031230;28;20273;-83
2022/02/18 09:34:12;;;;;;;5.13;2.88;;;;;;;13.15;100.00;98400.16;5031589;28;20206;-85
2022/02/18 09:36:38;;;;;;;3.15;2.65;;;;;;;13.30;100.00;98398.84;5030384;28;20634;-83
2022/02/18 09:39:06;;;;;;;3.03;2.67;;;;;;;13.22;100.00;98384.25;5031721;28;20317;-84
2022/02/18 09:41:34;;;;;;;4.30;2.50;;;;;;;13.08;100.00;98382.78;5025925;28;20312;-82
2022/02/18 09:44:03;;;;;;;4.18;2.22;;;;;;;12.87;100.00;98385.53;5028596;28;20204;-82
2022/02/18 09:46:30;;;;;;;14.55;8.82;;;;;;;13.05;100.00;98375.81;5030890;28;20207;-82
2022/02/18 09:48:57;;;;;;;3.25;2.20;;;;;;;13.50;100.00;98372.75;5024442;28;20679;-85
2022/02/18 09:51:26;;;;;;;3.28;2.00;;;;;;;13.72;100.00;98363.53;5030316;28;20677;-82
2022/02/18 09:53:53;;;;;;;2.30;1.95;;;;;;;13.51;100.00;98368.19;5030841;28;20241;-82
2022/02/18 09:56:20;;;;;;;3.17;2.13;;;;;;;13.34;100.00;98380.50;5035696;28;20191;-83
2022/02/18 09:58:47;;;;;;;2.33;2.05;;;;;;;13.24;100.00;98372.31;5034700;28;20228;-84
2022/02/18 10:01:13;;;;;;;1.92;1.65;;;;;;;13.31;100.00;98367.25;5034736;28;20195;-83
2022/02/18 10:03:40;;;;;;;5.72;2.30;;;;;;;13.16;100.00;98355.94;5033967;28;20246;-81
2022/02/18 10:06:07;;;;;;;2.92;2.60;;;;;;;13.39;100.00;98332.31;5030912;28;20292;-83
2022/02/18 10:08:35;;;;;;;2.78;1.60;;;;;;;13.52;100.00;98330.22;5028178;28;20248;-83
2022/02/18 10:11:04;;;;;;;3.42;2.25;;;;;;;13.43;100.00;98333.75;5033780;28;20291;-83
2022/02/18 10:13:35;;;;;;;2.92;1.77;;;;;;;13.44;100.00;98329.19;5021788;28;20566;-83
2022/02/18 10:16:04;;;;;;;1.75;1.65;;;;;;;13.63;100.00;98331.91;5031006;28;20648;-84
2022/02/18 10:18:47;;;;;;;3.22;1.90;;;;;;;13.53;100.00;98337.31;5027923;28;20522;-84
2022/02/18 10:21:15;;;;;;;2.50;2.30;;;;;;;13.48;100.00;98333.31;5034857;28;20199;-83
2022/02/18 10:23:43;;;;;;;3.67;2.30;;;;;;;13.54;100.00;98328.22;5033789;28;20578;-84
2022/02/18 10:26:10;;;;;;;4.45;2.85;;;;;;;13.56;100.00;98328.06;5026792;28;20206;-84
2022/02/18 10:28:37;;;;;;;2.88;2.40;;;;;;;13.69;100.00;98328.66;5024137;28;20648;-83
2022/02/18 10:31:06;;;;;;;3.08;2.20;;;;;;;13.48;100.00;98326.06;5025912;28;20205;-83
2022/02/18 10:33:36;;;;;;;3.80;3.05;;;;;;;13.47;100.00;98321.63;5033722;28;20207;-83
2022/02/18 10:36:05;;;;;;;3.08;2.13;;;;;;;13.19;100.00;98331.34;5032827;28;20678;-82
2022/02/18 10:38:34;;;;;;;2.90;2.38;;;;;;;13.30;100.00;98323.16;5033720;28;20326;-83
2022/02/18 10:41:16;;;;;;;2.20;2.00;;;;;;;13.31;100.00;98329.41;5032727;28;20219;-83
2022/02/18 10:43:46;;;;;;;1.50;1.40;;;;;;;13.29;100.00;98323.28;5033303;28;20211;-84
2022/02/18 10:46:13;;;;;;;1.90;1.50;;;;;;;13.40;100.00;98320.47;5032675;28;20232;-84
2022/02/18 10:48:50;;;;;;;2.67;1.40;;;;;;;13.34;100.00;98312.91;5033869;28;20217;-84
2022/02/18 10:51:20;;;;;;;3.58;1.48;;;;;;;13.39;100.00;98315.22;5017745;28;20213;-85
2022/02/18 10:53:49;;;;;;;2.90;1.33;;;;;;;13.43;100.00;98309.41;5024444;28;20232;-83
2022/02/18 10:56:19;;;;;;;1.85;1.20;;;;;;;13.35;100.00;98293.88;5034582;28;20202;-83
2022/02/18 10:58:49;;;;;;;1.10;0.80;;;;;;;13.33;100.00;98286.88;5032181;28;20196;-82
2022/02/18 11:01:18;;;;;;;1.88;1.10;;;;;;;13.50;100.00;98296.16;5033995;28;20201;-83
2022/02/18 11:03:46;;;;;;;1.27;0.80;;;;;;;13.30;100.00;98289.88;5034355;28;20200;-84
2022/02/18 11:06:18;;;;;;;2.22;0.93;;;;;;;13.23;100.00;98288.66;5031659;28;20271;-83
2022/02/18 11:08:52;;;;;;;1.10;0.80;;;;;;;13.26;100.00;98277.59;5033421;28;20245;-84
2022/02/18 11:11:31;;;;;;;1.55;0.90;;;;;;;13.15;100.00;98271.28;5033764;28;20603;-83
2022/02/18 11:13:59;;;;;;;1.60;1.00;;;;;;;13.15;100.00;98275.84;5034724;28;20211;-85
2022/02/18 11:16:27;;;;;;;1.75;1.10;;;;;;;13.13;100.00;98275.97;5033023;28;20206;-85
2022/02/18 11:18:55;;;;;;;2.00;1.27;;;;;;;13.10;100.00;98278.97;5034461;28;20238;-86
2022/02/18 11:21:22;;;;;;;2.45;0.80;;;;;;;13.27;100.00;98292.81;5032881;28;20191;-84
2022/02/18 11:23:49;;;;;;;2.55;1.13;;;;;;;13.32;100.00;98269.81;5033483;28;20548;-84
2022/02/18 11:26:18;;;;;;;1.33;0.95;;;;;;;13.49;100.00;98260.16;5034673;28;20204;-84